Impacts TAF Board INFO
FOR SITUATIONAL AWARENESS. NOT TO BE USED FOR FLIGHT PLANNING PURPOSES.
IDs:

KLAX - Los Angeles Intl, CA, US

Issued at 1122 UTC 25 Feb 2018
Updated at 1324 UTC 25 Feb 2018
Potential Impact None Slight Moderate High
Time<<26/14Z 26/15Z 26/16Z 26/17Z 26/18Z 26/19Z 26/20Z 26/21Z 26/22Z 26/23Z 27/00Z 27/01Z 27/02Z
Type PRVL PRVL PRVL PRVL
VIS >6 >6 >6 >6
CIG -- -- -- --
Cover SKC SKC SKC SKC
FltCat VFR VFR VFR VFR
WX -- -- -- --
WDir 80 80 80 80
WSpd 5 5 5 5
WGst -- -- -- --

Raw TAF
KLAX 251122Z 2512/2618 06006KT P6SM SKC
  FM251800 VRB03KT P6SM SKC
  FM252100 27012KT P6SM SKC
  FM260400 VRB03KT P6SM SKC
  FM261100 08005KT P6SM SKC


METAR Board
Radar Display
Forecast Discussion

FOR SITUATIONAL AWARENESS. NOT TO BE USED FOR FLIGHT PLANNING PURPOSES.